Time;durP1;ratioP1;P1;durP2;ratioP2;P2;SDS_P1;SDS_P2;PMS_P1;PMS_P2;Temp;Humidity;BMP_temperature;BMP_pressure;BME280_temperature;BME280_humidity;BME280_pressure;Samples;Min_cycle;Max_cycle;Signal;HPM_P1;HPM_P2
2022/01/01 00:01:19;;;;;;;31.77;13.57;;;;;;;;;;5117928;28;20168;-61
2022/01/01 00:03:45;;;;;;;23.98;12.57;;;;;;;;;;5117736;28;20490;-60
2022/01/01 00:06:11;;;;;;;27.15;12.25;;;;;;;;;;5117764;28;20206;-60
2022/01/01 00:08:37;;;;;;;28.33;11.88;;;;;;;;;;5118048;28;20181;-61
2022/01/01 00:11:02;;;;;;;28.52;11.48;;;;;;;;;;5117657;28;20188;-61
2022/01/01 00:13:28;;;;;;;28.25;10.55;;;;;;;;;;5117503;28;20159;-61
2022/01/01 00:15:54;;;;;;;30.67;11.05;;;;;;;;;;5117621;28;20372;-61
2022/01/01 00:18:20;;;;;;;26.73;9.88;;;;;;;;;;5117665;28;20498;-60
2022/01/01 00:20:46;;;;;;;25.40;10.13;;;;;;;;;;5118050;28;20178;-60
2022/01/01 00:23:12;;;;;;;21.30;8.77;;;;;;;;;;5117498;28;20171;-60
2022/01/01 00:25:38;;;;;;;23.50;8.35;;;;;;;;;;5117362;28;20183;-59
2022/01/01 00:28:04;;;;;;;30.85;10.27;;;;;;;;;;5117347;28;20483;-61
2022/01/01 00:30:30;;;;;;;25.95;8.57;;;;;;;;;;5117822;28;20526;-61
2022/01/01 00:32:56;;;;;;;16.70;7.63;;;;;;;;;;5117379;28;20232;-61
2022/01/01 00:35:22;;;;;;;25.65;9.02;;;;;;;;;;5117460;28;20246;-61
2022/01/01 00:37:48;;;;;;;22.33;8.10;;;;;;;;;;5117595;28;20169;-61
2022/01/01 00:40:14;;;;;;;19.45;8.27;;;;;;;;;;5099335;28;20162;-61
2022/01/01 00:42:40;;;;;;;21.45;7.55;;;;;;;;;;5117345;28;20182;-60
2022/01/01 00:45:06;;;;;;;19.63;8.18;;;;;;;;;;5117196;28;20668;-60
2022/01/01 00:47:32;;;;;;;19.80;7.70;;;;;;;;;;5117615;28;20205;-61
2022/01/01 00:49:57;;;;;;;19.60;8.32;;;;;;;;;;5099217;28;20162;-61
2022/01/01 00:52:23;;;;;;;21.85;8.73;;;;;;;;;;5117251;28;20190;-61
2022/01/01 00:54:49;;;;;;;25.33;9.32;;;;;;;;;;5117191;28;20177;-60
2022/01/01 00:57:15;;;;;;;29.77;9.95;;;;;;;;;;5099107;28;20226;-60
2022/01/01 00:59:41;;;;;;;27.45;9.75;;;;;;;;;;5117174;28;20246;-61
2022/01/01 01:02:07;;;;;;;27.05;9.35;;;;;;;;;;5116845;28;20173;-61
2022/01/01 01:04:33;;;;;;;30.52;10.50;;;;;;;;;;5115569;28;20189;-60
2022/01/01 01:06:59;;;;;;;29.50;10.40;;;;;;;;;;5116997;28;20159;-61
2022/01/01 01:09:25;;;;;;;34.88;11.32;;;;;;;;;;5116814;28;20640;-61
2022/01/01 01:11:52;;;;;;;35.90;11.90;;;;;;;;;;5117027;28;20165;-61
2022/01/01 01:14:21;;;;;;;35.83;13.50;;;;;;;;;;5116957;28;20630;-61
2022/01/01 01:16:47;;;;;;;39.40;12.55;;;;;;;;;;5116943;28;20548;-61
2022/01/01 01:19:13;;;;;;;33.05;12.02;;;;;;;;;;5116673;28;20163;-61
2022/01/01 01:21:39;;;;;;;40.67;12.27;;;;;;;;;;5116595;28;20154;-59
2022/01/01 01:24:05;;;;;;;35.47;12.57;;;;;;;;;;5116243;28;20498;-60
2022/01/01 01:26:31;;;;;;;34.47;12.90;;;;;;;;;;5116605;28;20312;-61
2022/01/01 01:28:58;;;;;;;32.78;13.23;;;;;;;;;;5115131;28;20158;-60
2022/01/01 01:31:25;;;;;;;39.42;12.70;;;;;;;;;;5116490;28;20533;-60
2022/01/01 01:33:51;;;;;;;41.80;12.65;;;;;;;;;;5116125;28;20151;-60
2022/01/01 01:36:17;;;;;;;31.48;11.85;;;;;;;;;;5116434;28;20613;-60
2022/01/01 01:38:43;;;;;;;34.67;12.50;;;;;;;;;;5116349;28;20198;-60
2022/01/01 01:41:09;;;;;;;30.88;11.93;;;;;;;;;;5116377;28;20171;-61
2022/01/01 01:43:36;;;;;;;24.77;11.13;;;;;;;;;;5115901;28;20606;-61
2022/01/01 01:46:04;;;;;;;36.95;11.18;;;;;;;;;;5116010;28;20234;-61
2022/01/01 01:48:35;;;;;;;22.92;9.60;;;;;;;;;;5116325;28;20166;-61
2022/01/01 01:51:01;;;;;;;25.02;10.18;;;;;;;;;;5115849;28;20171;-61
2022/01/01 01:53:28;;;;;;;28.50;10.82;;;;;;;;;;5115970;28;20167;-61
2022/01/01 01:55:54;;;;;;;25.77;9.88;;;;;;;;;;5115865;28;20195;-61
2022/01/01 01:58:20;;;;;;;28.25;9.25;;;;;;;;;;5115789;28;20171;-61
2022/01/01 02:03:24;;;;;;;31.55;9.68;;;;;;;;;;5116030;28;20263;-60
2022/01/01 02:05:51;;;;;;;24.42;9.70;;;;;;;;;;5115714;28;20637;-60
2022/01/01 02:08:17;;;;;;;30.60;10.88;;;;;;;;;;5115692;28;20223;-60
2022/01/01 02:10:43;;;;;;;30.83;11.80;;;;;;;;;;5115858;28;20253;-60
2022/01/01 02:13:19;;;;;;;28.52;10.20;;;;;;;;;;5115838;28;20163;-60
2022/01/01 02:18:17;;;;;;;24.70;10.93;;;;;;;;;;5115831;28;20162;-60
2022/01/01 02:20:49;;;;;;;30.90;10.38;;;;;;;;;;5115490;28;20216;-60
2022/01/01 02:23:15;;;;;;;26.40;10.25;;;;;;;;;;5115772;28;20492;-60
2022/01/01 02:25:41;;;;;;;26.42;11.60;;;;;;;;;;5115337;28;20224;-60
2022/01/01 02:28:07;;;;;;;30.55;10.38;;;;;;;;;;5115507;28;20155;-60
2022/01/01 02:30:33;;;;;;;33.15;10.80;;;;;;;;;;5115705;28;20175;-60
2022/01/01 02:32:59;;;;;;;28.88;9.70;;;;;;;;;;5115088;28;20759;-60
2022/01/01 02:35:25;;;;;;;38.67;11.90;;;;;;;;;;5115105;28;20192;-60
2022/01/01 02:37:51;;;;;;;25.67;10.10;;;;;;;;;;5115493;28;20170;-60
2022/01/01 02:40:17;;;;;;;25.63;10.05;;;;;;;;;;5114987;28;20212;-60
2022/01/01 02:42:43;;;;;;;27.65;9.63;;;;;;;;;;5115038;28;20190;-59
2022/01/01 02:45:11;;;;;;;29.55;10.40;;;;;;;;;;5115073;28;20278;-61
2022/01/01 02:47:37;;;;;;;27.75;9.60;;;;;;;;;;5115459;28;20170;-61
2022/01/01 02:50:03;;;;;;;28.65;10.02;;;;;;;;;;5114824;28;20230;-60
2022/01/01 02:52:29;;;;;;;22.73;9.40;;;;;;;;;;5114877;28;20166;-60
2022/01/01 02:54:55;;;;;;;27.13;10.23;;;;;;;;;;5115045;28;20171;-61
2022/01/01 02:57:21;;;;;;;27.08;9.63;;;;;;;;;;5113962;28;20174;-61
2022/01/01 02:59:48;;;;;;;26.35;8.13;;;;;;;;;;5115230;28;20254;-60
2022/01/01 03:02:14;;;;;;;24.65;8.63;;;;;;;;;;5121318;28;20610;-61
2022/01/01 03:04:40;;;;;;;20.55;8.60;;;;;;;;;;5118817;28;20195;-61
2022/01/01 03:07:06;;;;;;;22.85;8.23;;;;;;;;;;5114570;28;20214;-61
2022/01/01 03:09:34;;;;;;;21.70;8.07;;;;;;;;;;5114779;28;20170;-61
2022/01/01 03:12:03;;;;;;;19.02;6.85;;;;;;;;;;5114745;28;20167;-61
2022/01/01 03:14:29;;;;;;;17.25;6.85;;;;;;;;;;5114596;28;20228;-61
2022/01/01 03:16:55;;;;;;;16.02;6.45;;;;;;;;;;5114336;28;20175;-61
2022/01/01 03:19:21;;;;;;;17.95;6.70;;;;;;;;;;5114308;28;20261;-61
2022/01/01 03:21:47;;;;;;;19.00;6.30;;;;;;;;;;5114303;28;20198;-60
2022/01/01 03:24:13;;;;;;;19.45;6.65;;;;;;;;;;5114541;28;20193;-61
2022/01/01 03:26:39;;;;;;;22.50;6.63;;;;;;;;;;5113712;28;20159;-61
2022/01/01 03:29:05;;;;;;;21.70;6.80;;;;;;;;;;5113960;28;20249;-61
2022/01/01 03:31:31;;;;;;;16.63;6.25;;;;;;;;;;5114082;28;20174;-61
2022/01/01 03:33:58;;;;;;;17.92;6.10;;;;;;;;;;5114578;28;20159;-60
2022/01/01 03:36:24;;;;;;;21.52;6.78;;;;;;;;;;5114283;28;20166;-59
2022/01/01 03:38:50;;;;;;;13.40;6.20;;;;;;;;;;5114425;28;20181;-60
2022/01/01 03:41:16;;;;;;;19.73;5.88;;;;;;;;;;5114353;28;20166;-59
2022/01/01 03:43:42;;;;;;;16.95;5.68;;;;;;;;;;5114233;28;20444;-60
2022/01/01 03:46:08;;;;;;;19.30;6.43;;;;;;;;;;5113858;28;20229;-60
2022/01/01 03:48:34;;;;;;;22.67;6.60;;;;;;;;;;5113974;28;20257;-60
2022/01/01 03:51:00;;;;;;;15.80;5.75;;;;;;;;;;5113845;28;20173;-60
2022/01/01 03:53:26;;;;;;;22.88;6.43;;;;;;;;;;5113848;28;20163;-60
2022/01/01 03:55:52;;;;;;;19.70;5.65;;;;;;;;;;5113888;28;20174;-60
2022/01/01 03:58:18;;;;;;;18.27;7.15;;;;;;;;;;5113832;28;20173;-60
2022/01/01 04:00:44;;;;;;;21.80;5.75;;;;;;;;;;5113782;28;20159;-60
2022/01/01 04:03:11;;;;;;;21.08;6.05;;;;;;;;;;5113833;28;20235;-59
2022/01/01 04:05:40;;;;;;;18.90;5.32;;;;;;;;;;5113641;28;20591;-60
2022/01/01 04:08:06;;;;;;;16.95;5.32;;;;;;;;;;5114040;28;20163;-60
2022/01/01 04:10:32;;;;;;;16.77;4.70;;;;;;;;;;5113713;28;20224;-60
2022/01/01 04:12:58;;;;;;;17.83;5.65;;;;;;;;;;5114360;28;20163;-59
2022/01/01 04:15:25;;;;;;;16.58;5.28;;;;;;;;;;5113635;28;20167;-60
2022/01/01 04:17:56;;;;;;;11.55;4.35;;;;;;;;;;5113770;28;20163;-60
2022/01/01 04:20:22;;;;;;;17.00;5.00;;;;;;;;;;5114108;28;20166;-60
2022/01/01 04:22:48;;;;;;;17.42;4.47;;;;;;;;;;5113588;28;20167;-60
2022/01/01 04:25:14;;;;;;;11.38;4.05;;;;;;;;;;5113643;28;20191;-60
2022/01/01 04:27:40;;;;;;;14.43;4.90;;;;;;;;;;5113675;28;20594;-60
2022/01/01 04:30:06;;;;;;;11.10;4.53;;;;;;;;;;5113693;28;20587;-60
2022/01/01 04:32:32;;;;;;;21.10;5.25;;;;;;;;;;5113715;28;20179;-59
2022/01/01 04:34:59;;;;;;;17.23;4.68;;;;;;;;;;5113983;28;20191;-57
2022/01/01 04:37:25;;;;;;;20.13;4.95;;;;;;;;;;5113729;28;20492;-59
2022/01/01 04:39:56;;;;;;;14.85;4.53;;;;;;;;;;5116576;28;20170;-60
2022/01/01 04:42:22;;;;;;;14.30;5.28;;;;;;;;;;5117550;28;20197;-59
2022/01/01 04:44:48;;;;;;;19.40;4.93;;;;;;;;;;5117187;28;20218;-59
2022/01/01 04:47:14;;;;;;;19.13;5.35;;;;;;;;;;5099152;28;20590;-60
2022/01/01 04:49:40;;;;;;;16.52;5.32;;;;;;;;;;5117217;28;20159;-59
2022/01/01 04:52:06;;;;;;;18.13;4.88;;;;;;;;;;5117148;28;20522;-59
2022/01/01 04:54:34;;;;;;;13.70;4.20;;;;;;;;;;5117147;28;20167;-58
2022/01/01 04:57:00;;;;;;;13.25;4.63;;;;;;;;;;5117312;28;20159;-58
2022/01/01 04:59:26;;;;;;;15.85;4.63;;;;;;;;;;5117025;28;20178;-59
2022/01/01 05:01:52;;;;;;;18.42;5.30;;;;;;;;;;5116836;28;20155;-59
2022/01/01 05:04:18;;;;;;;23.70;6.07;;;;;;;;;;5116859;28;20179;-59
2022/01/01 05:06:49;;;;;;;15.15;4.85;;;;;;;;;;5117097;28;20159;-59
2022/01/01 05:09:14;;;;;;;14.35;5.03;;;;;;;;;;5117204;28;20166;-58
2022/01/01 05:11:41;;;;;;;16.73;5.10;;;;;;;;;;5116830;28;20163;-59
2022/01/01 05:14:07;;;;;;;18.73;5.70;;;;;;;;;;5116698;28;20167;-59
2022/01/01 05:16:33;;;;;;;19.98;5.53;;;;;;;;;;5116544;28;20235;-59
2022/01/01 05:18:59;;;;;;;22.25;6.75;;;;;;;;;;5117135;28;20166;-58
2022/01/01 05:21:25;;;;;;;19.80;6.53;;;;;;;;;;5116990;28;20167;-56
2022/01/01 05:23:51;;;;;;;16.83;4.80;;;;;;;;;;5116998;28;20166;-58
2022/01/01 05:26:17;;;;;;;19.10;5.13;;;;;;;;;;5116893;28;20194;-59
2022/01/01 05:28:44;;;;;;;13.60;5.03;;;;;;;;;;5116791;28;20170;-59
2022/01/01 05:31:10;;;;;;;22.48;5.32;;;;;;;;;;5116861;28;20183;-58
2022/01/01 05:33:36;;;;;;;24.33;5.55;;;;;;;;;;5116551;28;20170;-57
2022/01/01 05:36:02;;;;;;;16.70;4.70;;;;;;;;;;5116586;28;20503;-58
2022/01/01 05:38:28;;;;;;;16.77;5.07;;;;;;;;;;5116378;28;20292;-59
2022/01/01 05:40:54;;;;;;;20.35;5.47;;;;;;;;;;5116155;28;20564;-59
2022/01/01 05:43:20;;;;;;;20.63;5.38;;;;;;;;;;5116312;28;20166;-59
2022/01/01 05:45:46;;;;;;;18.98;5.25;;;;;;;;;;5116113;28;20521;-59
2022/01/01 05:48:12;;;;;;;13.90;4.57;;;;;;;;;;5116262;28;20251;-59
2022/01/01 05:50:38;;;;;;;19.50;4.85;;;;;;;;;;5115449;28;20159;-58
2022/01/01 05:53:04;;;;;;;19.17;6.03;;;;;;;;;;5116202;28;20167;-58
2022/01/01 05:55:30;;;;;;;19.23;4.50;;;;;;;;;;5116238;28;20162;-58
2022/01/01 05:57:56;;;;;;;18.83;4.82;;;;;;;;;;5115794;28;20193;-58
2022/01/01 06:00:22;;;;;;;14.00;4.65;;;;;;;;;;5116202;28;20202;-58
2022/01/01 06:02:48;;;;;;;15.75;4.65;;;;;;;;;;5115737;28;20194;-60
2022/01/01 06:05:14;;;;;;;22.27;5.43;;;;;;;;;;5115767;28;20198;-60
2022/01/01 06:07:40;;;;;;;18.52;4.97;;;;;;;;;;5115516;28;20170;-60
2022/01/01 06:10:06;;;;;;;12.40;4.70;;;;;;;;;;5115935;28;20581;-59
2022/01/01 06:12:32;;;;;;;23.42;5.28;;;;;;;;;;5115525;28;20166;-60
2022/01/01 06:14:58;;;;;;;16.60;4.50;;;;;;;;;;5115570;28;20175;-60
2022/01/01 06:17:24;;;;;;;21.23;5.32;;;;;;;;;;5115450;28;20158;-59
2022/01/01 06:19:49;;;;;;;17.73;4.30;;;;;;;;;;5115515;28;20246;-59
2022/01/01 06:22:16;;;;;;;19.73;4.57;;;;;;;;;;5115419;28;20181;-57
2022/01/01 06:24:42;;;;;;;21.08;5.82;;;;;;;;;;5115850;28;20222;-58
2022/01/01 06:27:08;;;;;;;19.25;5.00;;;;;;;;;;5115806;28;20645;-58
2022/01/01 06:29:34;;;;;;;20.48;4.93;;;;;;;;;;5116012;28;20246;-59
2022/01/01 06:32:00;;;;;;;19.70;4.95;;;;;;;;;;5115779;28;20625;-58
2022/01/01 06:34:26;;;;;;;16.08;4.28;;;;;;;;;;5116620;28;20162;-59
2022/01/01 06:36:52;;;;;;;23.98;5.07;;;;;;;;;;5121601;28;20155;-60
2022/01/01 06:39:18;;;;;;;16.20;4.50;;;;;;;;;;5130295;28;20198;-60
2022/01/01 06:41:44;;;;;;;15.25;5.00;;;;;;;;;;5112333;28;20158;-60
2022/01/01 06:44:10;;;;;;;16.52;3.95;;;;;;;;;;5130122;28;20598;-60
2022/01/01 06:46:36;;;;;;;15.07;5.10;;;;;;;;;;5128966;28;20182;-60
2022/01/01 06:49:02;;;;;;;17.75;5.63;;;;;;;;;;5128575;28;20173;-60
2022/01/01 06:51:28;;;;;;;15.75;4.07;;;;;;;;;;5130635;28;20227;-60
2022/01/01 06:53:54;;;;;;;15.70;4.93;;;;;;;;;;5130363;28;20167;-58
2022/01/01 06:56:20;;;;;;;18.08;4.70;;;;;;;;;;5130567;28;20163;-61
2022/01/01 06:58:45;;;;;;;15.95;4.32;;;;;;;;;;5132150;28;20173;-59
2022/01/01 07:01:12;;;;;;;19.30;5.25;;;;;;;;;;5131581;28;20234;-61
2022/01/01 07:03:37;;;;;;;18.38;4.07;;;;;;;;;;5124033;28;20235;-60
2022/01/01 07:06:03;;;;;;;26.00;4.78;;;;;;;;;;5124292;28;20226;-60
2022/01/01 07:08:29;;;;;;;19.90;4.20;;;;;;;;;;5118064;28;20250;-60
2022/01/01 07:10:55;;;;;;;15.75;4.25;;;;;;;;;;5115497;28;20163;-60
2022/01/01 07:13:21;;;;;;;25.95;4.85;;;;;;;;;;5114789;28;20612;-60
2022/01/01 07:15:48;;;;;;;16.45;4.53;;;;;;;;;;5114585;28;20171;-61
2022/01/01 07:18:14;;;;;;;15.50;4.18;;;;;;;;;;5114346;28;20167;-61
2022/01/01 07:20:40;;;;;;;16.98;4.10;;;;;;;;;;5114565;28;20167;-60
2022/01/01 07:23:05;;;;;;;12.93;4.15;;;;;;;;;;5114231;28;20171;-60
2022/01/01 07:25:31;;;;;;;15.95;4.47;;;;;;;;;;5114212;28;20194;-60
2022/01/01 07:27:57;;;;;;;19.02;4.65;;;;;;;;;;5114514;28;20171;-60
2022/01/01 07:30:23;;;;;;;22.10;4.50;;;;;;;;;;5114230;28;20167;-59
2022/01/01 07:32:50;;;;;;;16.67;5.38;;;;;;;;;;5114099;28;20201;-59
2022/01/01 07:35:16;;;;;;;18.40;4.55;;;;;;;;;;5114714;28;20163;-60
2022/01/01 07:37:42;;;;;;;16.77;5.05;;;;;;;;;;5114424;28;20397;-60
2022/01/01 07:40:11;;;;;;;18.05;4.88;;;;;;;;;;5114305;28;20571;-60
2022/01/01 07:42:37;;;;;;;15.38;4.57;;;;;;;;;;5114261;28;20174;-60
2022/01/01 07:45:03;;;;;;;16.15;4.85;;;;;;;;;;5114036;28;20195;-60
2022/01/01 07:47:29;;;;;;;16.63;5.05;;;;;;;;;;5114557;28;20169;-60
2022/01/01 07:49:55;;;;;;;17.98;4.97;;;;;;;;;;5114571;28;20586;-61
2022/01/01 07:52:21;;;;;;;16.63;5.30;;;;;;;;;;5114712;28;20163;-60
2022/01/01 07:54:47;;;;;;;18.95;4.65;;;;;;;;;;5096361;28;20203;-60
2022/01/01 07:57:13;;;;;;;16.58;5.28;;;;;;;;;;5114053;28;20171;-60
2022/01/01 07:59:39;;;;;;;18.60;5.40;;;;;;;;;;5114093;28;20176;-61
2022/01/01 08:02:05;;;;;;;14.48;5.03;;;;;;;;;;5114186;28;20159;-61
2022/01/01 08:04:31;;;;;;;22.95;6.85;;;;;;;;;;5114125;28;20170;-61
2022/01/01 08:06:57;;;;;;;17.08;5.10;;;;;;;;;;5114064;28;20566;-61
2022/01/01 08:09:23;;;;;;;17.55;5.45;;;;;;;;;;5113943;28;20163;-60
2022/01/01 08:11:50;;;;;;;21.95;5.93;;;;;;;;;;5113798;28;20163;-60
2022/01/01 08:14:16;;;;;;;16.17;6.22;;;;;;;;;;5116063;28;20556;-60
2022/01/01 08:17:02;;;;;;;20.38;5.50;;;;;;;;;;5117939;28;20251;-61
2022/01/01 08:19:28;;;;;;;17.73;5.68;;;;;;;;;;5118026;28;20269;-61
2022/01/01 08:21:54;;;;;;;18.23;5.63;;;;;;;;;;5117789;28;20166;-61
2022/01/01 08:24:21;;;;;;;19.08;6.32;;;;;;;;;;5117981;28;20175;-59
2022/01/01 08:26:46;;;;;;;18.40;5.55;;;;;;;;;;5117757;28;20167;-61
2022/01/01 08:29:13;;;;;;;17.13;5.60;;;;;;;;;;5117704;28;20333;-61
2022/01/01 08:31:39;;;;;;;22.10;6.10;;;;;;;;;;5117657;28;20179;-60
2022/01/01 08:34:04;;;;;;;18.15;5.25;;;;;;;;;;5117654;28;20609;-61
2022/01/01 08:36:30;;;;;;;22.45;6.05;;;;;;;;;;5117424;28;20167;-61
2022/01/01 08:38:56;;;;;;;26.38;7.00;;;;;;;;;;5117414;28;20155;-61
2022/01/01 08:41:22;;;;;;;20.35;5.90;;;;;;;;;;5117874;28;20166;-61
2022/01/01 08:43:48;;;;;;;23.45;6.20;;;;;;;;;;5117354;28;20594;-61
2022/01/01 08:46:14;;;;;;;27.55;6.35;;;;;;;;;;5117294;28;20197;-61
2022/01/01 08:48:41;;;;;;;18.20;6.18;;;;;;;;;;5117384;28;20173;-61
2022/01/01 08:51:17;;;;;;;14.40;5.10;;;;;;;;;;5117274;28;20163;-61
2022/01/01 08:53:43;;;;;;;15.50;5.43;;;;;;;;;;5117428;28;20197;-61
2022/01/01 08:56:09;;;;;;;20.23;5.93;;;;;;;;;;5117381;28;20206;-61
2022/01/01 08:58:35;;;;;;;18.85;6.38;;;;;;;;;;5117394;28;20182;-60
2022/01/01 09:01:01;;;;;;;19.60;6.03;;;;;;;;;;5117320;28;20167;-61
2022/01/01 09:03:27;;;;;;;21.42;7.35;;;;;;;;;;5116894;28;20590;-61
2022/01/01 09:05:53;;;;;;;21.92;6.30;;;;;;;;;;5117066;28;20190;-61
2022/01/01 09:08:19;;;;;;;21.20;6.75;;;;;;;;;;5116861;28;20166;-60
2022/01/01 09:10:45;;;;;;;22.80;6.45;;;;;;;;;;5116708;28;20163;-60
2022/01/01 09:13:11;;;;;;;23.85;7.22;;;;;;;;;;5116697;28;20163;-61
2022/01/01 09:15:37;;;;;;;16.20;5.88;;;;;;;;;;5116801;28;20162;-60
2022/01/01 09:18:03;;;;;;;19.95;7.38;;;;;;;;;;5116696;28;20174;-61
2022/01/01 09:20:29;;;;;;;20.23;6.22;;;;;;;;;;5116659;28;20479;-60
2022/01/01 09:22:55;;;;;;;21.42;7.55;;;;;;;;;;5116583;28;20216;-60
2022/01/01 09:25:21;;;;;;;19.27;7.28;;;;;;;;;;5115481;28;20332;-61
2022/01/01 09:27:47;;;;;;;16.35;6.75;;;;;;;;;;5116975;28;20605;-61
2022/01/01 09:30:13;;;;;;;19.88;6.78;;;;;;;;;;5116482;28;20162;-61
2022/01/01 09:32:39;;;;;;;19.98;7.38;;;;;;;;;;5116424;28;20179;-61
2022/01/01 09:35:05;;;;;;;20.30;6.40;;;;;;;;;;5116477;28;20166;-60
2022/01/01 09:37:32;;;;;;;16.67;6.68;;;;;;;;;;5098537;28;20308;-60
2022/01/01 09:39:58;;;;;;;20.95;7.07;;;;;;;;;;5116810;28;20190;-60
2022/01/01 09:42:24;;;;;;;24.65;7.22;;;;;;;;;;5116559;28;20263;-60
2022/01/01 09:44:51;;;;;;;21.63;7.53;;;;;;;;;;5116283;28;20195;-61
2022/01/01 09:47:17;;;;;;;20.88;7.35;;;;;;;;;;5116421;28;20173;-61
2022/01/01 09:49:43;;;;;;;19.63;8.10;;;;;;;;;;5116149;28;20167;-61
2022/01/01 09:52:09;;;;;;;19.83;7.35;;;;;;;;;;5116274;28;20163;-61
2022/01/01 09:54:38;;;;;;;21.60;8.00;;;;;;;;;;5116318;28;20220;-61
2022/01/01 09:57:04;;;;;;;24.90;7.80;;;;;;;;;;5116270;28;20190;-61
2022/01/01 09:59:31;;;;;;;19.35;8.55;;;;;;;;;;5116041;28;20600;-61
2022/01/01 10:01:57;;;;;;;20.40;7.93;;;;;;;;;;5116309;28;20163;-61
2022/01/01 10:04:23;;;;;;;15.30;7.40;;;;;;;;;;5115828;28;20169;-60
2022/01/01 10:07:02;;;;;;;24.55;8.85;;;;;;;;;;5116072;28;20190;-60
2022/01/01 10:09:32;;;;;;;19.02;8.10;;;;;;;;;;5115938;28;20173;-60
2022/01/01 10:11:59;;;;;;;29.95;9.07;;;;;;;;;;5115609;28;20167;-60
2022/01/01 10:14:35;;;;;;;21.48;8.27;;;;;;;;;;5115825;28;20167;-60
2022/01/01 10:17:02;;;;;;;25.58;8.27;;;;;;;;;;5115604;28;20621;-60
2022/01/01 10:19:31;;;;;;;24.02;8.60;;;;;;;;;;5115649;28;20220;-60
2022/01/01 10:21:58;;;;;;;21.08;8.18;;;;;;;;;;5115674;28;20173;-60
2022/01/01 10:24:40;;;;;;;21.13;8.27;;;;;;;;;;5115440;28;20238;-60
2022/01/01 10:29:57;;;;;;;21.25;9.20;;;;;;;;;;5115612;28;20617;-59
2022/01/01 10:32:24;;;;;;;18.45;8.13;;;;;;;;;;5115586;28;20190;-60
2022/01/01 10:34:50;;;;;;;19.10;8.13;;;;;;;;;;5115311;28;20254;-60
2022/01/01 10:37:16;;;;;;;17.77;8.25;;;;;;;;;;5115071;28;20201;-59
2022/01/01 10:39:49;;;;;;;21.00;8.93;;;;;;;;;;5115217;28;20170;-60
2022/01/01 10:42:15;;;;;;;22.20;8.90;;;;;;;;;;5115187;28;20235;-61
2022/01/01 10:44:46;;;;;;;22.20;9.00;;;;;;;;;;5115283;28;20257;-61
2022/01/01 10:47:18;;;;;;;19.77;9.55;;;;;;;;;;5114954;28;20189;-61
2022/01/01 10:52:19;;;;;;;22.02;9.82;;;;;;;;;;5114906;28;20181;-61
2022/01/01 10:54:52;;;;;;;31.00;11.30;;;;;;;;;;5114587;28;20159;-58
2022/01/01 10:57:22;;;;;;;25.67;11.18;;;;;;;;;;5113777;28;20167;-60
2022/01/01 10:59:48;;;;;;;23.70;10.90;;;;;;;;;;5114913;28;20609;-61
2022/01/01 11:02:14;;;;;;;28.27;11.40;;;;;;;;;;5114492;28;20272;-59
2022/01/01 11:04:41;;;;;;;28.30;11.77;;;;;;;;;;5114601;28;20195;-61
2022/01/01 11:07:08;;;;;;;29.88;11.52;;;;;;;;;;5114492;28;20613;-61
2022/01/01 11:09:34;;;;;;;27.17;10.82;;;;;;;;;;5114419;28;20158;-61
2022/01/01 11:12:03;;;;;;;26.50;10.82;;;;;;;;;;5115087;28;20173;-61
2022/01/01 11:14:35;;;;;;;29.23;12.45;;;;;;;;;;5115066;28;20622;-61
2022/01/01 11:17:01;;;;;;;22.98;11.13;;;;;;;;;;5114546;28;20248;-61
2022/01/01 11:19:27;;;;;;;25.70;10.75;;;;;;;;;;5113284;28;20242;-61
2022/01/01 11:21:53;;;;;;;25.88;11.63;;;;;;;;;;5114442;28;20162;-60
2022/01/01 11:24:19;;;;;;;29.45;11.63;;;;;;;;;;5114776;28;20163;-61
2022/01/01 11:26:46;;;;;;;23.70;9.95;;;;;;;;;;5114153;28;20194;-61
2022/01/01 11:29:14;;;;;;;22.75;10.38;;;;;;;;;;5114371;28;20246;-61
2022/01/01 11:31:40;;;;;;;24.95;10.90;;;;;;;;;;5114178;28;20520;-61
2022/01/01 11:34:07;;;;;;;20.90;10.30;;;;;;;;;;5113234;28;20167;-61
2022/01/01 11:36:34;;;;;;;23.70;10.73;;;;;;;;;;5114582;28;20213;-61
2022/01/01 11:39:03;;;;;;;22.45;10.85;;;;;;;;;;5114263;28;20167;-61
2022/01/01 11:41:39;;;;;;;28.17;10.20;;;;;;;;;;5114206;28;20167;-61
2022/01/01 11:44:25;;;;;;;21.42;10.70;;;;;;;;;;5114052;28;20574;-61
2022/01/01 11:47:01;;;;;;;26.23;10.57;;;;;;;;;;5113957;28;20193;-62
2022/01/01 11:49:28;;;;;;;23.15;10.95;;;;;;;;;;5113731;28;20180;-61
2022/01/01 11:51:55;;;;;;;22.17;10.77;;;;;;;;;;5113852;28;20590;-60
2022/01/01 11:54:21;;;;;;;22.40;10.63;;;;;;;;;;5114070;28;20246;-60
2022/01/01 11:56:48;;;;;;;24.85;10.60;;;;;;;;;;5113988;28;20193;-62
2022/01/01 11:59:18;;;;;;;28.52;10.77;;;;;;;;;;5114115;28;20171;-60
2022/01/01 12:01:44;;;;;;;24.17;11.25;;;;;;;;;;5113795;28;20621;-60
2022/01/01 12:04:31;;;;;;;27.20;11.27;;;;;;;;;;5114376;28;20163;-60
2022/01/01 12:07:15;;;;;;;24.05;10.65;;;;;;;;;;5114021;28;20178;-62
2022/01/01 12:09:47;;;;;;;21.77;11.02;;;;;;;;;;5113757;28;20252;-61
2022/01/01 12:12:14;;;;;;;28.80;12.02;;;;;;;;;;5114034;28;20205;-61
2022/01/01 12:14:41;;;;;;;24.70;10.82;;;;;;;;;;5114166;28;20193;-62
2022/01/01 12:17:07;;;;;;;28.85;11.77;;;;;;;;;;5113843;28;20536;-59
2022/01/01 12:19:37;;;;;;;27.70;10.70;;;;;;;;;;5113969;28;20163;-60
2022/01/01 12:22:09;;;;;;;25.70;10.88;;;;;;;;;;5113837;28;20163;-60
2022/01/01 12:24:36;;;;;;;29.13;11.73;;;;;;;;;;5113472;28;20171;-60
2022/01/01 12:27:09;;;;;;;26.52;11.80;;;;;;;;;;5113915;28;20194;-61
2022/01/01 12:29:35;;;;;;;24.52;11.23;;;;;;;;;;5113811;28;20151;-62
2022/01/01 12:32:02;;;;;;;22.38;10.77;;;;;;;;;;5113578;28;20232;-59
2022/01/01 12:34:28;;;;;;;22.38;10.75;;;;;;;;;;5114107;28;20171;-61
2022/01/01 12:36:55;;;;;;;28.17;10.88;;;;;;;;;;5113895;28;20643;-62
2022/01/01 12:39:22;;;;;;;24.35;10.50;;;;;;;;;;5113777;28;20163;-60
2022/01/01 12:41:48;;;;;;;24.98;10.98;;;;;;;;;;5113856;28;20167;-60
2022/01/01 12:44:18;;;;;;;23.65;11.15;;;;;;;;;;5113605;28;20166;-61
2022/01/01 12:46:46;;;;;;;30.48;11.85;;;;;;;;;;5113529;28;20194;-60
2022/01/01 12:49:12;;;;;;;30.63;12.80;;;;;;;;;;5113483;28;20583;-60
2022/01/01 12:51:38;;;;;;;22.80;11.45;;;;;;;;;;5113354;28;20171;-62
2022/01/01 12:54:14;;;;;;;24.77;10.75;;;;;;;;;;5113413;28;20304;-60
2022/01/01 12:56:41;;;;;;;28.17;11.45;;;;;;;;;;5113420;28;20475;-60
2022/01/01 12:59:09;;;;;;;27.38;11.68;;;;;;;;;;5113342;28;20634;-58
2022/01/01 13:01:37;;;;;;;25.15;11.60;;;;;;;;;;5115921;28;20599;-62
2022/01/01 13:04:09;;;;;;;25.65;11.68;;;;;;;;;;5117278;28;20167;-60
2022/01/01 13:06:39;;;;;;;23.38;11.55;;;;;;;;;;5117141;28;20209;-60
2022/01/01 13:09:06;;;;;;;27.58;12.13;;;;;;;;;;5117056;28;20186;-59
2022/01/01 13:11:36;;;;;;;26.52;11.13;;;;;;;;;;5116901;28;20192;-61
2022/01/01 13:14:03;;;;;;;26.55;12.25;;;;;;;;;;5117288;28;20171;-61
2022/01/01 13:16:29;;;;;;;26.17;12.23;;;;;;;;;;5117025;28;20246;-61
2022/01/01 13:18:56;;;;;;;32.85;12.65;;;;;;;;;;5117077;28;20198;-61
2022/01/01 13:21:22;;;;;;;26.42;12.52;;;;;;;;;;5117116;28;20171;-61
2022/01/01 13:23:48;;;;;;;29.70;13.07;;;;;;;;;;5116688;28;20166;-63
2022/01/01 13:26:14;;;;;;;26.58;13.32;;;;;;;;;;5116818;28;20252;-60
2022/01/01 13:28:41;;;;;;;25.17;13.00;;;;;;;;;;5116728;28;20495;-63
2022/01/01 13:31:08;;;;;;;31.48;13.10;;;;;;;;;;5116845;28;20478;-60
2022/01/01 13:33:35;;;;;;;31.67;13.73;;;;;;;;;;5116795;28;20222;-60
2022/01/01 13:36:03;;;;;;;39.78;15.00;;;;;;;;;;5117047;28;20459;-61
2022/01/01 13:38:30;;;;;;;31.15;15.10;;;;;;;;;;5116517;28;20257;-61
2022/01/01 13:40:57;;;;;;;29.92;14.20;;;;;;;;;;5116939;28;20174;-63
2022/01/01 13:43:27;;;;;;;31.85;14.68;;;;;;;;;;5116723;28;20375;-63
2022/01/01 13:46:10;;;;;;;36.13;13.55;;;;;;;;;;5117201;28;20293;-61
2022/01/01 13:48:45;;;;;;;36.13;14.15;;;;;;;;;;5116741;28;20163;-59
2022/01/01 13:51:11;;;;;;;34.38;14.77;;;;;;;;;;5116738;28;20167;-61
2022/01/01 13:53:37;;;;;;;30.52;14.88;;;;;;;;;;5116550;28;20259;-59
2022/01/01 13:56:07;;;;;;;35.97;15.60;;;;;;;;;;5119806;28;20181;-63
2022/01/01 13:58:45;;;;;;;35.25;15.70;;;;;;;;;;5117025;28;20170;-59
2022/01/01 14:01:16;;;;;;;34.97;14.05;;;;;;;;;;5116105;28;20166;-60
2022/01/01 14:03:42;;;;;;;36.15;14.73;;;;;;;;;;5116182;28;20267;-60
2022/01/01 14:06:08;;;;;;;28.33;14.50;;;;;;;;;;5116526;28;20575;-59
2022/01/01 14:08:35;;;;;;;34.17;14.25;;;;;;;;;;5117688;28;20187;-60
2022/01/01 14:11:01;;;;;;;30.08;14.05;;;;;;;;;;5121455;28;20219;-60
2022/01/01 14:13:31;;;;;;;34.63;14.95;;;;;;;;;;5121167;28;20161;-61
2022/01/01 14:15:58;;;;;;;40.90;16.42;;;;;;;;;;5121288;28;20163;-61
2022/01/01 14:18:31;;;;;;;36.67;16.27;;;;;;;;;;5123085;28;20215;-61
2022/01/01 14:20:57;;;;;;;34.85;16.88;;;;;;;;;;5125500;28;20170;-61
2022/01/01 14:23:33;;;;;;;37.10;16.23;;;;;;;;;;5122692;28;20179;-61
2022/01/01 14:26:00;;;;;;;37.65;15.95;;;;;;;;;;5119210;28;20222;-61
2022/01/01 14:28:26;;;;;;;32.97;15.27;;;;;;;;;;5119618;28;20167;-61
2022/01/01 14:30:53;;;;;;;38.65;17.20;;;;;;;;;;5120186;28;20287;-61
2022/01/01 14:33:20;;;;;;;32.05;16.23;;;;;;;;;;5121929;28;20158;-61
2022/01/01 14:35:46;;;;;;;39.33;16.27;;;;;;;;;;5120473;28;20177;-60